Time;durP1;ratioP1;P1;durP2;ratioP2;P2;SDS_P1;SDS_P2;PMS_P1;PMS_P2;Temp;Humidity;BMP_temperature;BMP_pressure;BME280_temperature;BME280_humidity;BME280_pressure;Samples;Min_cycle;Max_cycle;Signal;HPM_P1;HPM_P2
2022/08/09 00:01:47;;;;;;;2.58;2.00;;;19.20;86.40;;;;;;4955873;28;20065;-50
2022/08/09 00:04:20;;;;;;;2.80;1.90;;;19.30;87.00;;;;;;4954891;29;20122;-52
2022/08/09 00:06:46;;;;;;;3.10;1.92;;;19.30;87.70;;;;;;4955805;28;20091;-49
2022/08/09 00:09:14;;;;;;;6.60;2.88;;;19.30;86.90;;;;;;4954718;29;20118;-51
2022/08/09 00:11:42;;;;;;;5.15;3.05;;;19.40;88.20;;;;;;4954566;28;20024;-50
2022/08/09 00:14:08;;;;;;;3.58;2.50;;;19.30;87.30;;;;;;4956309;28;20027;-49
2022/08/09 00:16:33;;;;;;;2.88;2.40;;;19.30;88.10;;;;;;4954654;29;20035;-54
2022/08/09 00:18:59;;;;;;;3.08;2.20;;;19.40;87.60;;;;;;4955904;28;20035;-51
2022/08/09 00:21:26;;;;;;;5.32;2.55;;;19.40;88.50;;;;;;4955946;28;20028;-50
2022/08/09 00:23:51;;;;;;;5.72;2.50;;;19.40;88.90;;;;;;4954510;29;20023;-49
2022/08/09 00:26:17;;;;;;;6.43;2.20;;;19.30;89.50;;;;;;4954366;29;20038;-49
2022/08/09 00:28:43;;;;;;;4.50;2.35;;;19.30;89.80;;;;;;4955495;28;20050;-53
2022/08/09 00:31:08;;;;;;;2.97;2.20;;;19.20;90.10;;;;;;4955632;28;20027;-50
2022/08/09 00:33:34;;;;;;;5.13;2.08;;;19.20;90.60;;;;;;4955609;28;20389;-50
2022/08/09 00:36:01;;;;;;;3.75;2.28;;;19.20;90.80;;;;;;4955483;28;20023;-49
2022/08/09 00:38:27;;;;;;;5.78;2.22;;;19.10;91.10;;;;;;4954161;29;20031;-51
2022/08/09 00:40:53;;;;;;;2.30;2.10;;;19.10;91.40;;;;;;4954195;29;20027;-49
2022/08/09 00:43:22;;;;;;;4.78;2.58;;;19.00;91.60;;;;;;4955316;29;20023;-53
2022/08/09 00:45:48;;;;;;;3.30;2.15;;;18.90;91.80;;;;;;4954143;29;20031;-50
2022/08/09 00:48:13;;;;;;;5.45;2.47;;;18.80;92.30;;;;;;4954724;29;20050;-52
2022/08/09 00:50:39;;;;;;;9.13;3.03;;;18.80;92.70;;;;;;4954407;29;20039;-48
2022/08/09 00:53:06;;;;;;;5.30;2.42;;;18.70;93.00;;;;;;4954152;29;20062;-49
2022/08/09 00:55:32;;;;;;;4.05;2.47;;;18.70;93.40;;;;;;4955357;28;20051;-50
2022/08/09 00:57:58;;;;;;;4.97;2.45;;;18.60;93.70;;;;;;4955343;28;20024;-50
2022/08/09 01:00:23;;;;;;;3.60;2.10;;;18.60;94.10;;;;;;4955007;29;20038;-52
2022/08/09 01:03:07;;;;;;;3.38;2.55;;;18.50;94.30;;;;;;4955208;28;20023;-48
2022/08/09 01:06:10;;;;;;;4.60;2.28;;;18.40;94.80;;;;;;4954222;29;20047;-51
2022/08/09 01:08:41;;;;;;;3.78;2.22;;;18.30;95.40;;;;;;4953948;29;20034;-51
2022/08/09 01:11:40;;;;;;;5.28;2.45;;;18.30;95.60;;;;;;4953916;29;20029;-47
2022/08/09 01:14:12;;;;;;;3.67;2.47;;;18.30;96.00;;;;;;4948118;28;20122;-47
2022/08/09 01:16:44;;;;;;;6.20;2.65;;;18.30;96.50;;;;;;4958593;29;20027;-51
2022/08/09 01:19:28;;;;;;;3.05;2.13;;;18.30;96.80;;;;;;4958010;29;20506;-50
2022/08/09 01:22:12;;;;;;;5.90;2.75;;;18.30;96.80;;;;;;4958866;28;20054;-48
2022/08/09 01:25:09;;;;;;;2.47;2.17;;;18.30;96.90;;;;;;4957651;29;20023;-48
2022/08/09 01:27:36;;;;;;;3.40;2.00;;;18.30;96.80;;;;;;4958987;28;20024;-50
2022/08/09 01:30:06;;;;;;;5.43;2.40;;;18.30;97.20;;;;;;4957426;28;20086;-49
2022/08/09 01:32:40;;;;;;;3.22;2.28;;;18.30;97.10;;;;;;4958116;28;20032;-52
2022/08/09 01:35:23;;;;;;;2.92;2.50;;;18.20;97.20;;;;;;4959001;28;20083;-47
2022/08/09 01:37:52;;;;;;;2.45;2.17;;;18.10;97.60;;;;;;4957567;29;20019;-51
2022/08/09 01:40:19;;;;;;;2.95;2.65;;;18.00;98.10;;;;;;4957569;28;20038;-54
2022/08/09 01:42:47;;;;;;;4.05;3.00;;;17.90;98.50;;;;;;4958527;28;20035;-49
2022/08/09 01:45:14;;;;;;;5.22;2.47;;;17.80;99.70;;;;;;4957700;29;20059;-49
2022/08/09 01:47:41;;;;;;;3.33;2.58;;;17.80;99.90;;;;;;4957687;28;20028;-49
2022/08/09 01:50:08;;;;;;;3.70;2.20;;;17.80;99.90;;;;;;4958619;28;20028;-49
2022/08/09 01:52:35;;;;;;;3.53;3.00;;;17.70;99.90;;;;;;4957019;29;20537;-49
2022/08/09 01:55:02;;;;;;;4.65;2.53;;;17.70;99.90;;;;;;4957444;28;20019;-51
2022/08/09 01:57:36;;;;;;;4.97;2.50;;;17.70;99.90;;;;;;4958465;28;20035;-49
2022/08/09 02:00:04;;;;;;;4.60;2.75;;;17.60;99.90;;;;;;4958211;28;20023;-49
2022/08/09 02:02:33;;;;;;;7.07;2.85;;;17.50;99.90;;;;;;4958199;28;20038;-49
2022/08/09 02:05:08;;;;;;;3.90;2.78;;;17.50;99.90;;;;;;4956964;29;20031;-50
2022/08/09 02:07:38;;;;;;;3.80;2.35;;;17.40;99.90;;;;;;4956945;29;20043;-50
2022/08/09 02:10:09;;;;;;;4.05;2.55;;;17.40;99.90;;;;;;4957290;29;20027;-49
2022/08/09 02:12:37;;;;;;;5.05;2.50;;;17.50;99.90;;;;;;4958094;28;20382;-50
2022/08/09 02:15:06;;;;;;;4.57;2.20;;;17.50;99.90;;;;;;4958305;28;20082;-49
2022/08/09 02:17:32;;;;;;;2.95;2.45;;;17.50;99.90;;;;;;4958525;28;20039;-49
2022/08/09 02:19:58;;;;;;;5.38;2.88;;;17.50;99.90;;;;;;4956979;29;20027;-48
2022/08/09 02:22:51;;;;;;;4.13;2.60;;;17.40;99.90;;;;;;4956686;29;20040;-51
2022/08/09 02:25:21;;;;;;;3.03;2.72;;;17.50;99.90;;;;;;4957966;28;20033;-49
2022/08/09 02:28:06;;;;;;;4.95;2.58;;;17.40;99.90;;;;;;4958101;28;20059;-48
2022/08/09 02:30:40;;;;;;;8.18;2.92;;;17.30;99.90;;;;;;4956892;29;20030;-50
2022/08/09 02:33:09;;;;;;;5.32;2.88;;;17.20;99.90;;;;;;4957765;28;20055;-51
2022/08/09 02:35:36;;;;;;;4.28;2.42;;;17.10;99.90;;;;;;4956735;29;20027;-55
2022/08/09 02:38:03;;;;;;;11.00;2.97;;;17.10;99.90;;;;;;4956480;29;20031;-49
2022/08/09 02:40:30;;;;;;;7.00;3.70;;;17.10;99.90;;;;;;4956568;28;20059;-51
2022/08/09 02:42:59;;;;;;;4.07;2.67;;;17.00;99.90;;;;;;4957487;28;20062;-52
2022/08/09 02:45:34;;;;;;;4.07;2.60;;;17.00;99.90;;;;;;4956756;29;20024;-49
2022/08/09 02:48:06;;;;;;;3.55;2.80;;;17.00;99.90;;;;;;4956178;29;20118;-51
2022/08/09 02:50:47;;;;;;;3.45;2.65;;;17.00;99.90;;;;;;4956592;29;20027;-51
2022/08/09 02:53:25;;;;;;;6.38;2.60;;;17.00;99.90;;;;;;4956884;29;20386;-52
2022/08/09 02:55:53;;;;;;;4.03;2.95;;;17.20;99.90;;;;;;4957706;28;20051;-50
2022/08/09 02:58:21;;;;;;;7.70;2.20;;;17.20;99.90;;;;;;4956347;29;20031;-51
2022/08/09 03:00:48;;;;;;;6.63;2.70;;;17.20;99.90;;;;;;4956776;29;20027;-49
2022/08/09 03:03:16;;;;;;;6.07;3.08;;;17.10;99.90;;;;;;4957143;28;20038;-51
2022/08/09 03:05:43;;;;;;;12.38;6.20;;;17.20;99.90;;;;;;4955819;28;20498;-50
2022/08/09 03:08:11;;;;;;;11.45;7.45;;;17.10;99.90;;;;;;4955929;28;20497;-51
2022/08/09 03:10:38;;;;;;;10.90;4.63;;;17.00;99.90;;;;;;4955769;28;20023;-54
2022/08/09 03:13:06;;;;;;;5.72;3.60;;;16.90;99.90;;;;;;4956073;29;20035;-55
2022/08/09 03:15:32;;;;;;;4.97;3.05;;;16.90;99.90;;;;;;4956968;28;20019;-51
2022/08/09 03:17:59;;;;;;;4.97;3.53;;;16.80;99.90;;;;;;4955998;29;20034;-52
2022/08/09 03:20:26;;;;;;;6.07;3.50;;;16.80;99.90;;;;;;4956933;28;20110;-54
2022/08/09 03:22:53;;;;;;;6.15;4.32;;;16.90;99.90;;;;;;4956800;28;20027;-53
2022/08/09 03:25:19;;;;;;;7.22;3.97;;;16.90;99.90;;;;;;4955552;28;20139;-52
2022/08/09 03:27:49;;;;;;;11.40;5.30;;;16.90;99.90;;;;;;4956771;28;20041;-56
2022/08/09 03:30:15;;;;;;;7.85;3.17;;;16.90;99.90;;;;;;4955580;28;20074;-55
2022/08/09 03:32:41;;;;;;;4.93;2.97;;;16.90;99.90;;;;;;4955982;29;20082;-51
2022/08/09 03:35:10;;;;;;;5.95;3.10;;;16.80;99.90;;;;;;4956363;29;20509;-51
2022/08/09 03:37:37;;;;;;;5.53;3.25;;;16.80;99.90;;;;;;4954995;28;20031;-52
2022/08/09 03:40:04;;;;;;;5.10;2.88;;;16.80;99.90;;;;;;4956496;28;20027;-50
2022/08/09 03:42:29;;;;;;;8.93;4.50;;;16.80;99.90;;;;;;4955999;29;20027;-52
2022/08/09 03:44:55;;;;;;;6.03;3.70;;;16.70;99.90;;;;;;4955207;29;20027;-50
2022/08/09 03:47:20;;;;;;;6.93;3.22;;;16.70;99.90;;;;;;4955025;29;20027;-55
2022/08/09 03:49:49;;;;;;;7.93;3.92;;;16.60;99.90;;;;;;4955116;28;20082;-52
2022/08/09 03:52:17;;;;;;;6.45;4.00;;;16.70;99.90;;;;;;4956231;28;20039;-51
2022/08/09 03:54:44;;;;;;;7.10;3.67;;;16.60;99.90;;;;;;4955050;28;20023;-49
2022/08/09 03:57:12;;;;;;;4.60;3.38;;;16.60;99.90;;;;;;4956304;28;20025;-49
2022/08/09 03:59:38;;;;;;;6.05;3.20;;;16.50;99.90;;;;;;4954795;29;20035;-51
2022/08/09 04:02:04;;;;;;;7.63;3.58;;;16.60;99.90;;;;;;4955327;28;20031;-50
2022/08/09 04:04:31;;;;;;;4.18;2.72;;;16.50;99.90;;;;;;4956017;28;20027;-52
2022/08/09 04:06:57;;;;;;;6.47;3.03;;;16.50;99.90;;;;;;4955983;28;20041;-56
2022/08/09 04:09:26;;;;;;;3.75;2.65;;;16.50;99.90;;;;;;4954669;29;20114;-52
2022/08/09 04:12:02;;;;;;;3.65;2.80;;;16.50;99.90;;;;;;4955927;28;20024;-50
2022/08/09 04:14:28;;;;;;;6.55;2.90;;;16.50;99.90;;;;;;4955980;28;20050;-51
2022/08/09 04:16:54;;;;;;;5.05;2.70;;;16.40;99.90;;;;;;4954659;29;20502;-53
2022/08/09 04:19:19;;;;;;;3.50;3.00;;;16.40;99.90;;;;;;4954608;29;20027;-50
2022/08/09 04:21:45;;;;;;;5.82;2.95;;;16.50;99.90;;;;;;4954901;28;20035;-50
2022/08/09 04:24:11;;;;;;;5.95;3.40;;;16.40;99.90;;;;;;4954555;29;20042;-51
2022/08/09 04:26:36;;;;;;;7.35;2.90;;;16.50;99.90;;;;;;4955644;28;20397;-52
2022/08/09 04:29:02;;;;;;;4.75;3.53;;;16.50;99.90;;;;;;4954347;29;20027;-54
2022/08/09 04:31:28;;;;;;;5.43;3.10;;;16.60;99.90;;;;;;4955701;28;20031;-56
2022/08/09 04:33:54;;;;;;;5.20;3.15;;;16.80;99.90;;;;;;4955169;29;20034;-53
2022/08/09 04:36:25;;;;;;;3.72;2.90;;;17.00;99.90;;;;;;4954419;29;20031;-53
2022/08/09 04:38:52;;;;;;;4.30;3.40;;;17.10;99.90;;;;;;4954878;29;20023;-50
2022/08/09 04:41:18;;;;;;;4.95;2.92;;;17.30;99.90;;;;;;4954259;29;20068;-56
2022/08/09 04:43:44;;;;;;;3.35;2.92;;;17.50;99.90;;;;;;4954224;28;20094;-51
2022/08/09 04:46:10;;;;;;;5.15;3.30;;;17.80;99.90;;;;;;4955445;28;20031;-56
2022/08/09 04:48:35;;;;;;;6.18;2.83;;;18.10;99.90;;;;;;4955510;28;20028;-53
2022/08/09 04:51:01;;;;;;;12.05;2.88;;;18.30;99.90;;;;;;4954118;29;20546;-55
2022/08/09 04:53:27;;;;;;;4.45;2.90;;;18.70;99.90;;;;;;4955154;29;20086;-57
2022/08/09 04:55:53;;;;;;;4.80;3.28;;;19.00;99.90;;;;;;4954558;29;20023;-56
2022/08/09 04:58:19;;;;;;;10.48;3.28;;;19.30;99.90;;;;;;4955263;28;20455;-57
2022/08/09 05:00:45;;;;;;;4.82;2.80;;;19.60;99.90;;;;;;4955372;28;20023;-54
2022/08/09 05:03:11;;;;;;;5.13;3.13;;;20.00;99.90;;;;;;4954368;29;20078;-50
2022/08/09 05:05:37;;;;;;;7.10;2.97;;;20.40;99.90;;;;;;4955282;28;20027;-51
2022/08/09 05:08:03;;;;;;;6.18;3.30;;;20.70;99.90;;;;;;4954442;29;20092;-55
2022/08/09 05:10:28;;;;;;;3.50;2.25;;;21.00;99.90;;;;;;4954212;29;20019;-57
2022/08/09 05:12:54;;;;;;;3.90;2.50;;;21.20;99.90;;;;;;4954204;29;20034;-50
2022/08/09 05:15:20;;;;;;;7.30;2.35;;;21.60;99.90;;;;;;4953998;29;20023;-51
2022/08/09 05:17:46;;;;;;;3.28;2.10;;;22.00;99.90;;;;;;4953902;28;20067;-50
2022/08/09 05:20:11;;;;;;;4.55;2.33;;;22.40;99.90;;;;;;4953857;29;20035;-49
2022/08/09 05:22:37;;;;;;;2.22;2.03;;;22.70;99.90;;;;;;4953959;29;20034;-50
2022/08/09 05:25:04;;;;;;;5.32;1.98;;;23.10;99.90;;;;;;4955432;28;20031;-51
2022/08/09 05:27:30;;;;;;;3.72;2.17;;;23.40;99.90;;;;;;4955081;28;20031;-50
2022/08/09 05:29:55;;;;;;;4.30;2.38;;;23.50;99.90;;;;;;4954154;29;20132;-49
2022/08/09 05:32:21;;;;;;;5.68;2.40;;;23.60;99.50;;;;;;4954933;28;20016;-48
2022/08/09 05:34:47;;;;;;;2.20;1.83;;;23.90;98.70;;;;;;4954320;29;20047;-49
2022/08/09 05:37:12;;;;;;;3.13;1.92;;;24.30;97.40;;;;;;4953739;29;20028;-53
2022/08/09 05:39:39;;;;;;;6.18;2.40;;;24.60;97.00;;;;;;4953940;29;20027;-51
2022/08/09 05:42:05;;;;;;;2.70;2.10;;;24.70;96.80;;;;;;4953725;29;20050;-50
2022/08/09 05:44:31;;;;;;;5.50;2.05;;;24.90;96.10;;;;;;4953663;29;20447;-49
2022/08/09 05:46:57;;;;;;;4.50;2.42;;;25.30;95.50;;;;;;4953927;29;20087;-51
2022/08/09 05:49:23;;;;;;;6.05;2.13;;;25.30;94.80;;;;;;4954987;28;20028;-51
2022/08/09 05:51:48;;;;;;;4.85;1.92;;;25.40;94.90;;;;;;4953635;29;20082;-49
2022/08/09 05:54:14;;;;;;;2.03;1.75;;;25.60;93.50;;;;;;4955202;28;20038;-49
2022/08/09 05:56:40;;;;;;;2.58;1.88;;;25.80;93.70;;;;;;4953640;29;20027;-49
2022/08/09 05:59:06;;;;;;;3.58;2.60;;;26.30;92.90;;;;;;4955190;28;20462;-49
2022/08/09 06:01:32;;;;;;;4.30;2.00;;;26.80;91.80;;;;;;4956221;28;20031;-50
2022/08/09 06:03:57;;;;;;;4.28;2.28;;;27.00;91.10;;;;;;4958510;28;20478;-51
2022/08/09 06:06:23;;;;;;;5.38;2.70;;;27.50;90.40;;;;;;4957121;29;20031;-52
2022/08/09 06:08:49;;;;;;;4.47;2.28;;;27.60;88.20;;;;;;4958521;28;20036;-50
2022/08/09 06:11:15;;;;;;;3.97;2.15;;;27.30;89.60;;;;;;4957028;29;20497;-53
2022/08/09 06:13:41;;;;;;;4.93;2.30;;;27.90;87.20;;;;;;4958033;29;20086;-59
2022/08/09 06:16:07;;;;;;;14.40;3.50;;;28.00;86.30;;;;;;4956852;29;20033;-57
2022/08/09 06:18:34;;;;;;;7.57;3.47;;;28.00;84.60;;;;;;4956882;29;20027;-55
2022/08/09 06:21:00;;;;;;;6.03;2.80;;;27.80;84.20;;;;;;4956794;29;20023;-52
2022/08/09 06:23:28;;;;;;;9.68;3.10;;;27.10;85.50;;;;;;4956736;29;20046;-57
2022/08/09 06:25:54;;;;;;;9.52;2.70;;;26.30;85.90;;;;;;4956513;29;20082;-52
2022/08/09 06:28:20;;;;;;;14.13;2.90;;;26.70;86.80;;;;;;4956521;29;20027;-59
2022/08/09 06:30:45;;;;;;;8.80;3.13;;;27.20;85.90;;;;;;4956639;29;20023;-56
2022/08/09 06:33:11;;;;;;;7.78;2.33;;;27.80;83.80;;;;;;4956590;28;20054;-56
2022/08/09 06:35:37;;;;;;;7.93;2.47;;;28.60;81.20;;;;;;4956445;29;20475;-55
2022/08/09 06:38:02;;;;;;;8.82;2.78;;;28.70;79.90;;;;;;4956484;28;20034;-54
2022/08/09 06:40:28;;;;;;;7.10;2.88;;;28.10;80.00;;;;;;4956646;29;20099;-57
2022/08/09 06:42:54;;;;;;;9.02;2.92;;;27.80;80.40;;;;;;4956605;29;20062;-54
2022/08/09 06:45:20;;;;;;;9.63;2.97;;;27.80;80.50;;;;;;4956274;29;20471;-54
2022/08/09 06:47:47;;;;;;;18.23;2.88;;;27.80;80.50;;;;;;4956316;28;20425;-56
2022/08/09 06:50:13;;;;;;;7.68;2.80;;;28.50;80.20;;;;;;4957170;29;20030;-57
2022/08/09 06:52:44;;;;;;;10.40;2.60;;;29.10;77.90;;;;;;4957454;28;20046;-52
2022/08/09 06:55:17;;;;;;;4.88;2.00;;;29.30;76.60;;;;;;4956711;29;20024;-54
2022/08/09 06:57:43;;;;;;;5.65;2.50;;;29.30;78.10;;;;;;4956876;29;20027;-57
2022/08/09 07:00:10;;;;;;;6.50;2.72;;;30.60;73.90;;;;;;4955887;29;20039;-55
2022/08/09 07:02:35;;;;;;;5.38;2.53;;;30.90;72.70;;;;;;4956035;29;20032;-54
2022/08/09 07:05:02;;;;;;;12.10;3.15;;;31.80;70.80;;;;;;4957409;28;20031;-52
2022/08/09 07:07:28;;;;;;;5.75;2.53;;;32.40;67.80;;;;;;4955807;28;20102;-54
2022/08/09 07:09:53;;;;;;;10.43;2.58;;;33.20;66.80;;;;;;4956114;29;20498;-55
2022/08/09 07:12:19;;;;;;;5.38;2.42;;;33.60;64.30;;;;;;4956393;28;20502;-55
2022/08/09 07:14:45;;;;;;;7.50;2.80;;;33.50;65.00;;;;;;4955823;29;20031;-57
2022/08/09 07:17:11;;;;;;;4.95;2.65;;;32.90;63.20;;;;;;4955712;29;20086;-54
2022/08/09 07:19:36;;;;;;;4.85;2.70;;;33.30;63.50;;;;;;4956895;28;20055;-52
2022/08/09 07:22:02;;;;;;;8.35;2.65;;;33.30;64.00;;;;;;4956896;28;20031;-58
2022/08/09 07:24:32;;;;;;;10.05;2.35;;;33.40;62.70;;;;;;4955564;29;20537;-58
2022/08/09 07:26:58;;;;;;;5.55;2.60;;;34.10;61.90;;;;;;4955449;29;20028;-58
2022/08/09 07:29:24;;;;;;;9.93;2.70;;;33.80;61.70;;;;;;4956726;28;20081;-54
2022/08/09 07:31:50;;;;;;;9.30;2.95;;;33.10;60.30;;;;;;4956301;29;20023;-55
2022/08/09 07:34:15;;;;;;;4.65;2.50;;;33.20;61.10;;;;;;4956136;29;20162;-57
2022/08/09 07:36:41;;;;;;;4.05;2.47;;;34.30;61.20;;;;;;4955405;29;20187;-57
2022/08/09 07:39:07;;;;;;;7.13;3.00;;;35.40;59.00;;;;;;4955136;28;20433;-55
2022/08/09 07:41:33;;;;;;;6.82;2.70;;;36.60;57.40;;;;;;4955579;29;20031;-53
2022/08/09 07:43:58;;;;;;;7.65;3.00;;;37.50;55.40;;;;;;4956123;29;20070;-56
2022/08/09 07:46:24;;;;;;;4.20;2.65;;;37.40;54.30;;;;;;4955390;28;20034;-57
2022/08/09 07:48:50;;;;;;;8.20;3.42;;;36.70;55.50;;;;;;4956441;28;20027;-56
2022/08/09 07:51:16;;;;;;;8.57;2.63;;;37.20;53.80;;;;;;4955072;29;20398;-56
2022/08/09 07:53:42;;;;;;;7.18;2.67;;;37.30;54.20;;;;;;4956438;28;20019;-53
2022/08/09 07:56:08;;;;;;;9.82;2.78;;;37.70;53.60;;;;;;4956532;28;20037;-54
2022/08/09 07:58:33;;;;;;;5.43;2.63;;;38.10;53.40;;;;;;4955168;28;20023;-57
2022/08/09 08:00:59;;;;;;;10.15;2.85;;;38.50;53.00;;;;;;4955161;29;20122;-57
2022/08/09 08:03:25;;;;;;;8.18;2.80;;;38.70;51.60;;;;;;4956218;28;20031;-53
2022/08/09 08:05:51;;;;;;;4.82;2.72;;;39.10;51.00;;;;;;4955992;28;20070;-56
2022/08/09 08:08:17;;;;;;;3.47;2.30;;;38.60;49.80;;;;;;4955906;28;20070;-56
2022/08/09 08:10:43;;;;;;;5.95;2.85;;;38.30;51.10;;;;;;4955330;29;20034;-58
2022/08/09 08:13:08;;;;;;;6.10;2.58;;;37.90;51.40;;;;;;4954725;29;20027;-53
2022/08/09 08:15:34;;;;;;;7.72;2.70;;;38.10;51.00;;;;;;4955924;28;20339;-53
2022/08/09 08:18:00;;;;;;;7.80;2.80;;;39.20;50.80;;;;;;4954655;29;20399;-56
2022/08/09 08:20:28;;;;;;;8.10;3.15;;;39.90;49.30;;;;;;4954520;29;20474;-53
2022/08/09 08:22:54;;;;;;;6.95;2.60;;;40.40;48.20;;;;;;4955096;28;20052;-56
2022/08/09 08:25:19;;;;;;;7.32;2.95;;;39.90;48.80;;;;;;4954785;29;20035;-53
2022/08/09 08:27:45;;;;;;;6.85;3.40;;;40.40;47.60;;;;;;4954870;29;20035;-56
2022/08/09 08:30:17;;;;;;;12.00;3.05;;;40.80;47.20;;;;;;4954407;29;20116;-58
2022/08/09 08:32:43;;;;;;;6.82;3.00;;;41.50;46.50;;;;;;4956158;28;20383;-56
2022/08/09 08:35:09;;;;;;;6.22;2.85;;;42.00;45.80;;;;;;4955566;28;20023;-58
2022/08/09 08:37:35;;;;;;;8.52;2.88;;;42.20;45.20;;;;;;4954351;28;20398;-54
2022/08/09 08:40:02;;;;;;;7.88;3.17;;;42.60;45.80;;;;;;4954114;29;20122;-57
2022/08/09 08:42:29;;;;;;;9.88;3.13;;;42.40;44.50;;;;;;4954442;29;20525;-53
2022/08/09 08:45:00;;;;;;;11.57;2.90;;;42.70;44.90;;;;;;4954357;29;20032;-55
2022/08/09 08:47:27;;;;;;;7.40;3.03;;;43.30;43.30;;;;;;4954096;29;20031;-54
2022/08/09 08:49:59;;;;;;;7.18;2.80;;;43.50;43.30;;;;;;4955267;28;20382;-53
2022/08/09 08:52:27;;;;;;;3.13;2.50;;;43.50;42.90;;;;;;4954079;29;20058;-55
2022/08/09 08:54:54;;;;;;;4.78;2.88;;;43.20;43.30;;;;;;4955360;28;20132;-60
2022/08/09 08:57:21;;;;;;;9.13;2.92;;;44.00;43.20;;;;;;4955352;28;20032;-56
2022/08/09 08:59:48;;;;;;;7.25;2.80;;;44.20;42.10;;;;;;4955206;28;20103;-56
2022/08/09 09:02:22;;;;;;;9.88;2.95;;;43.10;43.20;;;;;;4954409;29;20027;-55
2022/08/09 09:04:51;;;;;;;11.05;3.35;;;43.60;42.40;;;;;;4954941;29;20027;-61
2022/08/09 09:07:18;;;;;;;5.80;2.38;;;44.20;41.70;;;;;;4955210;28;20032;-57
2022/08/09 09:09:49;;;;;;;5.32;3.08;;;44.20;42.00;;;;;;4955151;28;20028;-58
2022/08/09 09:12:17;;;;;;;3.20;2.70;;;44.70;41.80;;;;;;4953873;28;20054;-58
2022/08/09 09:14:44;;;;;;;7.47;2.80;;;44.40;41.60;;;;;;4953962;29;20055;-52
2022/08/09 09:17:10;;;;;;;8.50;3.30;;;44.00;41.10;;;;;;4955152;28;20110;-57
2022/08/09 09:19:36;;;;;;;7.97;2.95;;;44.60;41.20;;;;;;4955105;28;20031;-50
2022/08/09 09:22:09;;;;;;;4.10;2.78;;;45.10;41.30;;;;;;4953832;29;20027;-56
2022/08/09 09:27:57;;;;;;;2.35;2.00;;;43.90;39.60;;;;;;4954946;29;20058;-55
2022/08/09 09:30:23;;;;;;;3.40;2.65;;;41.90;40.20;;;;;;4954053;29;20019;-55
2022/08/09 09:33:11;;;;;;;7.13;2.30;;;41.80;40.40;;;;;;4954955;28;20030;-59
2022/08/09 09:35:58;;;;;;;2.50;2.30;;;42.70;41.30;;;;;;4955022;28;20030;-52
2022/08/09 09:38:39;;;;;;;6.57;2.95;;;43.60;40.50;;;;;;4958652;28;20395;-55
2022/08/09 09:41:05;;;;;;;7.20;2.83;;;44.20;39.90;;;;;;4957457;29;20020;-56
2022/08/09 09:43:31;;;;;;;6.80;2.55;;;44.80;39.70;;;;;;4958658;28;20139;-54
2022/08/09 09:45:57;;;;;;;6.15;2.60;;;45.20;39.60;;;;;;4957282;29;20048;-54
2022/08/09 09:48:23;;;;;;;4.60;2.63;;;45.70;38.30;;;;;;4957764;29;20106;-54
2022/08/09 09:50:50;;;;;;;2.83;2.40;;;44.00;38.70;;;;;;4957424;29;20124;-56
2022/08/09 09:53:21;;;;;;;5.35;2.28;;;44.70;39.10;;;;;;4957902;29;20031;-59
2022/08/09 09:55:52;;;;;;;3.72;2.42;;;43.90;38.00;;;;;;4958477;28;20027;-57
2022/08/09 09:58:18;;;;;;;3.60;2.20;;;42.80;38.90;;;;;;4957062;29;20078;-56
2022/08/09 10:00:56;;;;;;;8.85;2.65;;;43.00;39.20;;;;;;4958297;29;20055;-54
2022/08/09 10:03:50;;;;;;;5.43;2.22;;;42.90;39.00;;;;;;4957132;29;20050;-56
2022/08/09 10:06:17;;;;;;;6.53;2.15;;;43.20;39.60;;;;;;4957235;29;20614;-54
2022/08/09 10:08:44;;;;;;;5.93;2.20;;;41.00;40.00;;;;;;4958147;28;20475;-55
2022/08/09 10:11:17;;;;;;;5.93;2.28;;;41.10;40.30;;;;;;4958154;28;20059;-54
2022/08/09 10:13:43;;;;;;;6.20;2.20;;;42.40;39.90;;;;;;4958366;28;20019;-55
2022/08/09 10:16:09;;;;;;;3.47;2.10;;;42.30;39.70;;;;;;4958272;28;20028;-55
2022/08/09 10:18:35;;;;;;;3.38;2.20;;;43.00;39.50;;;;;;4956672;29;20461;-54
2022/08/09 10:21:09;;;;;;;4.75;2.40;;;43.20;38.80;;;;;;4957045;28;20147;-54
2022/08/09 10:23:39;;;;;;;5.78;2.17;;;43.30;39.40;;;;;;4957888;28;20024;-53
2022/08/09 10:26:05;;;;;;;;;;;43.70;39.10;;;;;;4958241;28;20019;-54
2022/08/09 10:28:32;;;;;;;6.18;1.90;;;43.60;38.60;;;;;;4957795;28;19907;-57
2022/08/09 10:30:58;;;;;;;6.10;1.88;;;41.10;40.30;;;;;;4957633;28;20041;-56
2022/08/09 10:33:24;;;;;;;3.42;1.63;;;39.70;41.00;;;;;;4958043;28;20038;-59
2022/08/09 10:35:50;;;;;;;7.63;2.00;;;38.20;41.30;;;;;;4957732;28;20372;-54
2022/08/09 10:38:17;;;;;;;11.13;2.08;;;38.10;43.00;;;;;;4957632;28;20027;-52
2022/08/09 10:40:44;;;;;;;4.78;2.00;;;38.40;42.70;;;;;;4956445;29;20035;-55
2022/08/09 10:43:11;;;;;;;5.88;2.10;;;38.50;42.10;;;;;;4957516;28;20471;-54
2022/08/09 10:45:37;;;;;;;3.40;2.00;;;38.00;42.40;;;;;;4956599;29;20034;-54
2022/08/09 10:48:15;;;;;;;5.95;2.10;;;38.10;42.80;;;;;;4956067;28;20027;-54
2022/08/09 10:51:16;;;;;;;4.93;2.38;;;37.50;42.40;;;;;;4956042;29;20027;-54
2022/08/09 10:53:56;;;;;;;5.40;2.00;;;36.90;44.10;;;;;;4956215;29;20122;-54
2022/08/09 10:56:24;;;;;;;7.32;1.70;;;36.20;44.50;;;;;;4956133;29;20066;-57
2022/08/09 10:58:55;;;;;;;3.50;1.90;;;35.80;45.00;;;;;;4956218;29;20034;-54
2022/08/09 11:01:34;;;;;;;5.85;2.10;;;35.70;44.70;;;;;;4956087;29;20031;-55
2022/08/09 11:04:14;;;;;;;3.40;1.98;;;34.40;45.60;;;;;;4955968;29;20513;-54
2022/08/09 11:06:44;;;;;;;6.40;1.80;;;33.30;46.50;;;;;;4956738;29;20043;-58
2022/08/09 11:09:14;;;;;;;6.55;2.33;;;33.00;48.00;;;;;;4957270;28;20035;-56
2022/08/09 11:11:58;;;;;;;3.10;1.80;;;33.10;47.80;;;;;;4957491;28;20031;-58
2022/08/09 11:14:36;;;;;;;2.45;1.70;;;32.30;48.10;;;;;;4957654;29;20057;-54
2022/08/09 11:17:25;;;;;;;3.85;2.28;;;31.60;49.10;;;;;;4956697;29;20594;-55
2022/08/09 11:19:53;;;;;;;2.90;1.70;;;31.30;49.90;;;;;;4956013;29;20118;-58
2022/08/09 11:22:19;;;;;;;3.17;1.63;;;31.40;49.70;;;;;;4957395;28;20508;-54
2022/08/09 11:25:15;;;;;;;4.28;1.83;;;31.50;49.70;;;;;;4957417;28;20110;-56
2022/08/09 11:27:43;;;;;;;7.40;1.88;;;32.00;49.00;;;;;;4955961;29;20483;-56
2022/08/09 11:30:21;;;;;;;3.67;1.90;;;31.50;50.20;;;;;;4956036;29;20027;-54
2022/08/09 11:33:00;;;;;;;3.00;1.33;;;31.40;49.50;;;;;;4956225;29;20023;-52
2022/08/09 11:35:44;;;;;;;1.77;1.67;;;31.10;50.00;;;;;;4956544;29;20031;-52
2022/08/09 11:38:21;;;;;;;3.53;1.55;;;31.00;49.30;;;;;;4955406;29;20162;-56
2022/08/09 11:40:47;;;;;;;2.20;1.60;;;30.80;49.50;;;;;;4955238;29;20034;-60
2022/08/09 11:43:47;;;;;;;4.38;1.58;;;30.80;49.50;;;;;;4956503;28;20110;-57
2022/08/09 11:46:13;;;;;;;1.65;1.55;;;30.40;49.90;;;;;;4957050;28;20019;-55
2022/08/09 11:48:54;;;;;;;2.90;1.80;;;30.00;50.40;;;;;;4955913;29;20118;-59
2022/08/09 11:51:21;;;;;;;5.03;1.90;;;30.10;50.80;;;;;;4956728;28;20032;-63
2022/08/09 11:53:48;;;;;;;2.95;1.63;;;30.20;50.00;;;;;;4956672;28;20024;-58
2022/08/09 11:56:13;;;;;;;3.60;1.60;;;30.40;50.30;;;;;;4956407;29;20094;-61
2022/08/09 11:58:41;;;;;;;1.98;1.48;;;30.00;50.60;;;;;;4955647;28;20553;-58
2022/08/09 12:01:06;;;;;;;4.22;1.60;;;30.00;51.10;;;;;;4955210;29;20390;-56
2022/08/09 12:03:33;;;;;;;4.80;1.65;;;30.10;50.10;;;;;;4956102;28;20509;-56
2022/08/09 12:06:00;;;;;;;3.70;2.10;;;30.10;49.60;;;;;;4956073;28;20030;-59
2022/08/09 12:08:27;;;;;;;4.13;1.85;;;30.00;50.20;;;;;;4954749;29;20038;-60
2022/08/09 12:10:55;;;;;;;4.45;1.60;;;30.10;51.20;;;;;;4954807;29;20051;-56
2022/08/09 12:13:45;;;;;;;7.38;1.50;;;29.90;50.10;;;;;;4954853;28;20023;-51
2022/08/09 12:16:14;;;;;;;7.03;2.42;;;29.80;49.50;;;;;;4955087;29;20023;-55
2022/08/09 12:18:43;;;;;;;3.47;1.70;;;29.50;50.10;;;;;;4955915;28;20023;-52
2022/08/09 12:21:10;;;;;;;3.35;1.33;;;29.30;49.90;;;;;;4955951;28;20033;-55
2022/08/09 12:23:46;;;;;;;5.22;1.40;;;29.40;50.40;;;;;;4954616;29;20031;-57
2022/08/09 12:26:13;;;;;;;2.53;1.48;;;29.50;49.80;;;;;;4955559;29;20034;-54
2022/08/09 12:28:47;;;;;;;3.10;1.48;;;29.50;50.00;;;;;;4955439;28;20027;-55
2022/08/09 12:31:22;;;;;;;2.15;1.50;;;29.50;49.80;;;;;;4955692;28;20106;-56
2022/08/09 12:33:48;;;;;;;4.05;1.77;;;29.40;49.90;;;;;;4954721;29;20046;-58
2022/08/09 12:36:15;;;;;;;3.47;1.23;;;29.70;49.70;;;;;;4955214;29;20055;-57
2022/08/09 12:38:41;;;;;;;5.28;1.38;;;29.90;50.10;;;;;;4954273;29;20023;-56
2022/08/09 12:41:07;;;;;;;4.53;2.25;;;29.70;50.10;;;;;;4955102;29;20023;-57
2022/08/09 12:43:34;;;;;;;3.42;1.63;;;29.80;51.00;;;;;;4954575;29;20027;-57
2022/08/09 12:46:00;;;;;;;3.17;1.45;;;30.10;50.10;;;;;;4954208;29;20023;-57
2022/08/09 12:48:27;;;;;;;3.70;1.65;;;30.30;49.90;;;;;;4954112;28;20063;-56
2022/08/09 12:50:54;;;;;;;4.63;1.30;;;30.20;50.30;;;;;;4954083;29;20121;-58
2022/08/09 12:53:27;;;;;;;4.30;1.50;;;30.40;49.90;;;;;;4955409;28;20506;-58
2022/08/09 12:56:21;;;;;;;2.78;1.40;;;30.60;50.40;;;;;;4954120;28;20079;-58
2022/08/09 12:59:09;;;;;;;1.67;1.38;;;30.30;48.80;;;;;;4954080;29;20031;-58